Overview Statistics Trail Chart Weather Telemetry Raw packets
 

This is the latest recevied weather packets stored in our database for station/object 9W2CHF-3. If no packets are shown the sender has not sent any weather packets the latest 10 day(s).

<< 2 3 4 5 6 7 8 >>
Time Temp. Humidity Pressure Rain* Wind** Luminosity Snow
1788501361 34.44° C 61% 1012.5 hPa - - - -
1788500161 35° C 61% 1012.7 hPa - - - -
1788498961 35° C 59% 1013.2 hPa - - - -
1788497761 35.56° C 58% 1013.3 hPa - - - -
1788496568 35.56° C 58% 1013.6 hPa - - - -
1788495361 36.11° C 57% 1013.9 hPa - - - -
1788494161 35° C 61% 1014 hPa - - - -
1788492961 33.89° C 71% 1014.2 hPa - - - -
1788491761 33.89° C 73% 1014.4 hPa - - - -
1788490560 33.33° C 77% 1014.6 hPa - - - -
1788489360 32.22° C 84% 1014.8 hPa - - - -
1788488160 32.22° C 83% 1014.8 hPa - - - -
1788486959 31.67° C 88% 1014.9 hPa - - - -
1788485759 30° C 97% 1014.9 hPa - - - -
1788484559 30.56° C 100% 1014.9 hPa - - - -
1788483359 29.44° C 100% 1014.8 hPa - - - -
1788482159 28.89° C 100% 1014.8 hPa - - - -
1788480959 28.33° C 100% 1014.3 hPa - - - -
1788479759 28.33° C 100% 1014 hPa - - - -
1788478559 27.22° C 100% 1013.5 hPa - - - -
1788477359 26.67° C 100% 1013.3 hPa - - - -
1788476159 27.22° C 100% 1013 hPa - - - -
1788474987 26.67° C 100% 1012.9 hPa - - - -
1788473758 26.67° C 100% 1012.7 hPa - - - -
1788472562 27.22° C 100% 1012.5 hPa - - - -

* Rain since midnight (hover to see other rain measurements)
** Current wind speed in m/s (hover to see current wind gust speed)